createdAt,value
2022-10-22T00:01:07.331Z,100195.98
2022-10-22T00:03:39.137Z,100201.67
2022-10-22T00:06:07.325Z,100197.05
2022-10-22T00:08:35.058Z,100198.22
2022-10-22T00:11:28.896Z,100203.16
2022-10-22T00:13:57.842Z,100202.21
2022-10-22T00:16:25.490Z,100199.97
2022-10-22T00:18:53.313Z,100198.55
2022-10-22T00:21:20.945Z,100196.69
2022-10-22T00:23:49.155Z,100191.78
2022-10-22T00:26:16.872Z,100186.24
2022-10-22T00:28:44.637Z,100174.98
2022-10-22T00:31:12.703Z,100177.52
2022-10-22T00:33:40.474Z,100176.10
2022-10-22T00:36:08.885Z,100169.33
2022-10-22T00:38:36.508Z,100164.86
2022-10-22T00:41:04.483Z,100161.52
2022-10-22T00:43:32.298Z,100170.64
2022-10-22T00:46:00.100Z,100170.20
2022-10-22T00:48:33.567Z,100169.18
2022-10-22T00:51:07.688Z,100168.20
2022-10-22T00:53:50.795Z,100174.51
2022-10-22T00:56:20.384Z,100173.46
2022-10-22T00:58:53.752Z,100165.31
2022-10-22T01:01:27.937Z,100163.65
2022-10-22T01:03:56.223Z,100159.80
2022-10-22T01:06:28.890Z,100158.73
2022-10-22T01:09:28.154Z,100156.75
2022-10-22T01:12:28.313Z,100148.83
2022-10-22T01:15:18.370Z,100142.55
2022-10-22T01:18:22.101Z,100139.41
2022-10-22T01:21:16.430Z,100131.45
2022-10-22T01:24:10.173Z,100129.46
2022-10-22T01:27:08.685Z,100138.27
2022-10-22T01:30:06.241Z,100143.85
2022-10-22T01:32:48.580Z,100138.90
2022-10-22T01:35:24.362Z,100138.67
2022-10-22T01:38:03.645Z,100140.77
2022-10-22T01:40:32.828Z,100140.24
2022-10-22T01:43:08.360Z,100141.40
2022-10-22T01:45:44.561Z,100139.21
2022-10-22T01:48:45.843Z,100136.44
2022-10-22T01:52:00.556Z,100135.89
2022-10-22T01:54:45.043Z,100138.71
2022-10-22T01:57:38.108Z,100135.16
2022-10-22T02:00:11.709Z,100140.09
2022-10-22T02:03:06.271Z,100144.67
2022-10-22T02:05:44.393Z,100148.81
2022-10-22T02:08:17.877Z,100162.45
2022-10-22T02:10:48.704Z,100161.86
2022-10-22T02:13:23.255Z,100164.16
2022-10-22T02:15:53.199Z,100159.40
2022-10-22T02:18:26.977Z,100148.01
2022-10-22T02:20:55.133Z,100140.60
2022-10-22T02:23:23.152Z,100132.95
2022-10-22T02:26:00.112Z,100135.64
2022-10-22T02:28:49.749Z,100134.40
2022-10-22T02:31:28.196Z,100139.64
2022-10-22T02:34:04.637Z,100137.17
2022-10-22T02:36:32.855Z,100130.94
2022-10-22T02:39:01.536Z,100129.42
2022-10-22T02:41:29.648Z,100137.55
2022-10-22T02:43:57.310Z,100140.85
2022-10-22T02:46:25.717Z,100147.25
2022-10-22T02:48:53.606Z,100156.66
2022-10-22T02:51:21.329Z,100164.47
2022-10-22T02:53:48.966Z,100166.68
2022-10-22T02:56:17.426Z,100165.40
2022-10-22T02:58:45.118Z,100168.05
2022-10-22T03:01:15.437Z,100167.55
2022-10-22T03:03:44.083Z,100165.77
2022-10-22T03:06:11.904Z,100159.48
2022-10-22T03:08:40.680Z,100156.61
2022-10-22T03:11:08.771Z,100151.45
2022-10-22T03:13:37.015Z,100148.20
2022-10-22T03:16:05.170Z,100144.73
2022-10-22T03:18:32.870Z,100139.11
2022-10-22T03:21:31.856Z,100146.01
2022-10-22T03:24:04.810Z,100149.49
2022-10-22T03:26:32.755Z,100148.59
2022-10-22T03:29:00.932Z,100152.33
2022-10-22T03:31:28.687Z,100153.73
2022-10-22T03:33:56.394Z,100157.54
2022-10-22T03:36:24.307Z,100157.61
2022-10-22T03:38:52.094Z,100161.03
2022-10-22T03:41:20.325Z,100161.70
2022-10-22T03:43:52.855Z,100164.81
2022-10-22T03:46:21.287Z,100169.77
2022-10-22T03:48:49.010Z,100173.44
2022-10-22T03:51:16.760Z,100172.54
2022-10-22T03:53:44.446Z,100168.00
2022-10-22T03:56:13.855Z,100167.55
2022-10-22T03:58:42.309Z,100160.98
2022-10-22T04:01:13.333Z,100163.33
2022-10-22T04:03:41.352Z,100169.77
2022-10-22T04:06:12.782Z,100168.02
2022-10-22T04:08:43.139Z,100172.89
2022-10-22T04:11:13.359Z,100175.21
2022-10-22T04:13:41.348Z,100167.91
2022-10-22T04:16:19.371Z,100167.60
2022-10-22T04:18:49.997Z,100167.65
2022-10-22T04:21:19.683Z,100167.61
2022-10-22T04:23:50.635Z,100165.77
2022-10-22T04:26:19.925Z,100162.42
2022-10-22T04:28:49.779Z,100162.14
2022-10-22T04:31:22.104Z,100164.62
2022-10-22T04:33:57.755Z,100161.06
2022-10-22T04:36:25.949Z,100159.11
2022-10-22T04:39:04.241Z,100155.61
2022-10-22T04:41:36.386Z,100156.73
2022-10-22T04:44:06.068Z,100156.23
2022-10-22T04:46:35.853Z,100162.98
2022-10-22T04:49:04.669Z,100169.13
2022-10-22T04:51:32.885Z,100173.96
2022-10-22T04:54:00.603Z,100181.27
2022-10-22T04:56:31.040Z,100183.33
2022-10-22T04:59:03.149Z,100174.82
2022-10-22T05:01:40.161Z,100174.81
2022-10-22T05:04:15.629Z,100176.71
2022-10-22T05:06:44.119Z,100181.77
2022-10-22T05:09:17.261Z,100182.85
2022-10-22T05:11:48.789Z,100177.56
2022-10-22T05:14:21.034Z,100176.88
2022-10-22T05:16:50.266Z,100178.45
2022-10-22T05:19:25.192Z,100180.99
2022-10-22T05:21:56.478Z,100178.90
2022-10-22T05:24:26.481Z,100180.57
2022-10-22T05:26:57.341Z,100176.36
2022-10-22T05:29:26.265Z,100174.22
2022-10-22T05:31:54.221Z,100180.88
2022-10-22T05:34:21.947Z,100189.88
2022-10-22T05:36:49.700Z,100196.06
2022-10-22T05:39:17.390Z,100205.86
2022-10-22T05:41:45.212Z,100208.13
2022-10-22T05:44:13.735Z,100211.84
2022-10-22T05:46:43.173Z,100209.77
2022-10-22T05:49:14.666Z,100203.79
2022-10-22T05:51:43.150Z,100209.61
2022-10-22T05:54:20.571Z,100213.55
2022-10-22T05:56:48.958Z,100211.11
2022-10-22T05:59:16.688Z,100210.45
2022-10-22T06:01:44.678Z,100208.30
2022-10-22T06:04:13.594Z,100208.37
2022-10-22T06:06:48.920Z,100208.50
2022-10-22T06:09:35.501Z,100210.44
2022-10-22T06:12:03.518Z,100211.58
2022-10-22T06:14:32.670Z,100211.79
2022-10-22T06:17:00.578Z,100216.59
2022-10-22T06:19:29.782Z,100223.55
2022-10-22T06:21:57.421Z,100224.45
2022-10-22T06:24:25.151Z,100227.02
2022-10-22T06:26:53.262Z,100229.64
2022-10-22T06:29:21.531Z,100232.12
2022-10-22T06:31:49.632Z,100238.05
2022-10-22T06:34:18.952Z,100237.21
2022-10-22T06:36:47.476Z,100242.37
2022-10-22T06:39:17.528Z,100244.62
2022-10-22T06:41:45.783Z,100241.83
2022-10-22T06:44:18.709Z,100243.34
2022-10-22T06:46:53.006Z,100247.73
2022-10-22T06:49:21.209Z,100245.84
2022-10-22T06:51:53.982Z,100243.80
2022-10-22T06:54:23.068Z,100241.98
2022-10-22T06:56:50.830Z,100239.59
2022-10-22T06:59:18.533Z,100234.97
2022-10-22T07:01:46.488Z,100229.84
2022-10-22T07:04:15.030Z,100241.41
2022-10-22T07:06:42.787Z,100248.27
2022-10-22T07:09:10.652Z,100263.01
2022-10-22T07:11:44.923Z,100268.30
2022-10-22T07:14:14.418Z,100270.20
2022-10-22T07:16:43.080Z,100273.90
2022-10-22T07:19:11.522Z,100269.61
2022-10-22T07:21:39.708Z,100269.27
2022-10-22T07:24:07.915Z,100269.61
2022-10-22T07:26:36.951Z,100274.00
2022-10-22T07:29:05.246Z,100277.52
2022-10-22T07:31:33.344Z,100280.77
2022-10-22T07:34:01.316Z,100282.96
2022-10-22T07:36:29.016Z,100285.50
2022-10-22T07:38:58.761Z,100287.77
2022-10-22T07:41:30.212Z,100293.23
2022-10-22T07:43:58.230Z,100286.86
2022-10-22T07:46:27.109Z,100290.30
2022-10-22T07:48:55.311Z,100289.54
2022-10-22T07:51:23.184Z,100290.95
2022-10-22T07:53:51.024Z,100288.05
2022-10-22T07:56:18.779Z,100290.98
2022-10-22T07:58:46.564Z,100295.26
2022-10-22T08:01:14.601Z,100289.20
2022-10-22T08:03:42.510Z,100281.69
2022-10-22T08:06:14.169Z,100289.33
2022-10-22T08:08:43.428Z,100294.09
2022-10-22T08:11:11.928Z,100292.90
2022-10-22T08:13:44.893Z,100295.95
2022-10-22T08:16:15.049Z,100299.45
2022-10-22T08:18:42.983Z,100299.24
2022-10-22T08:21:12.961Z,100289.68
2022-10-22T08:23:40.760Z,100295.27
2022-10-22T08:26:09.348Z,100292.79
2022-10-22T08:28:37.258Z,100306.73
2022-10-22T08:31:08.184Z,100301.36
2022-10-22T08:33:38.623Z,100298.05
2022-10-22T08:36:06.916Z,100306.86
2022-10-22T08:38:35.311Z,100310.75
2022-10-22T08:41:23.147Z,100309.72
2022-10-22T08:44:22.774Z,100314.50
2022-10-22T08:47:02.685Z,100308.14
2022-10-22T08:49:41.297Z,100304.80
2022-10-22T08:52:15.861Z,100306.83
2022-10-22T08:54:59.181Z,100308.39
2022-10-22T08:57:48.689Z,100302.21
2022-10-22T09:00:35.277Z,100308.06
2022-10-22T09:03:37.214Z,100308.23
2022-10-22T09:06:27.298Z,100312.91
2022-10-22T09:08:57.488Z,100309.55
2022-10-22T09:11:35.558Z,100312.47
2022-10-22T09:14:05.128Z,100309.41
2022-10-22T09:16:55.992Z,100308.88
2022-10-22T09:19:37.630Z,100308.77
2022-10-22T09:22:38.338Z,100303.54
2022-10-22T09:25:29.185Z,100315.64
2022-10-22T09:27:59.800Z,100315.39
2022-10-22T09:30:34.756Z,100315.64
2022-10-22T09:33:28.047Z,100313.45
2022-10-22T09:36:03.258Z,100310.35
2022-10-22T09:38:49.442Z,100305.58
2022-10-22T09:41:19.915Z,100308.34
2022-10-22T09:43:48.594Z,100316.36
2022-10-22T09:46:20.352Z,100312.25
2022-10-22T09:49:03.491Z,100317.76
2022-10-22T09:51:49.533Z,100323.21
2022-10-22T09:54:26.118Z,100328.34
2022-10-22T09:56:58.712Z,100334.84
2022-10-22T09:59:38.866Z,100339.08
2022-10-22T10:02:20.286Z,100344.33
2022-10-22T10:04:57.902Z,100349.47
2022-10-22T10:07:31.358Z,100349.39
2022-10-22T10:09:59.481Z,100354.50
2022-10-22T10:12:38.952Z,100357.29
2022-10-22T10:15:24.606Z,100361.39
2022-10-22T10:18:39.702Z,100364.13
2022-10-22T10:21:31.963Z,100363.59
2022-10-22T10:24:31.896Z,100357.88
2022-10-22T10:27:31.324Z,100363.55
2022-10-22T10:30:16.663Z,100365.31
2022-10-22T10:33:21.479Z,100364.63
2022-10-22T10:35:55.426Z,100365.91
2022-10-22T10:38:51.866Z,100367.57
2022-10-22T10:42:03.631Z,100367.65
2022-10-22T10:45:06.710Z,100364.94
2022-10-22T10:48:06.827Z,100357.95
2022-10-22T10:50:56.955Z,100360.89
2022-10-22T10:54:00.317Z,100356.40
2022-10-22T10:56:39.310Z,100354.08
2022-10-22T10:59:35.248Z,100354.23
2022-10-22T11:02:21.602Z,100353.20
2022-10-22T11:05:20.550Z,100350.52
2022-10-22T11:08:01.698Z,100347.50
2022-10-22T11:10:39.016Z,100347.49
2022-10-22T11:13:23.179Z,100341.80
2022-10-22T11:16:17.609Z,100336.73
2022-10-22T11:19:03.443Z,100329.40
2022-10-22T11:21:50.062Z,100324.42
2022-10-22T11:24:39.995Z,100331.65
2022-10-22T11:27:25.386Z,100332.10
2022-10-22T11:30:02.754Z,100332.55
2022-10-22T11:32:33.226Z,100335.82
2022-10-22T11:35:09.027Z,100333.43
2022-10-22T11:37:39.102Z,100329.24
2022-10-22T11:40:22.153Z,100325.56
2022-10-22T11:42:56.672Z,100327.29
2022-10-22T11:45:24.275Z,100328.33
2022-10-22T11:47:58.597Z,100328.43
2022-10-22T11:50:42.582Z,100328.27
2022-10-22T11:53:13.370Z,100333.44
2022-10-22T11:55:48.432Z,100332.22
2022-10-22T11:58:43.802Z,100331.45
2022-10-22T12:01:11.526Z,100334.98
2022-10-22T12:03:43.867Z,100334.61
2022-10-22T12:06:19.768Z,100332.71
2022-10-22T12:08:56.930Z,100328.66
2022-10-22T12:11:40.183Z,100330.13
2022-10-22T12:14:32.508Z,100327.56
2022-10-22T12:17:17.795Z,100327.64
2022-10-22T12:19:51.105Z,100328.08
2022-10-22T12:22:25.857Z,100324.67
2022-10-22T12:25:00.706Z,100322.50
2022-10-22T12:27:38.912Z,100324.16
2022-10-22T12:30:21.145Z,100323.77
2022-10-22T12:32:56.132Z,100325.09
2022-10-22T12:35:29.266Z,100323.19
2022-10-22T12:38:02.134Z,100314.70
2022-10-22T12:40:34.070Z,100318.15
2022-10-22T12:43:14.220Z,100317.73
2022-10-22T12:45:45.706Z,100319.29
2022-10-22T12:48:29.490Z,100325.10
2022-10-22T12:51:05.469Z,100321.98
2022-10-22T12:53:37.809Z,100319.50
2022-10-22T12:56:11.996Z,100319.20
2022-10-22T12:58:57.659Z,100318.30
2022-10-22T13:01:34.543Z,100318.80
2022-10-22T13:04:17.103Z,100320.86
2022-10-22T13:06:52.110Z,100324.71
2022-10-22T13:09:27.485Z,100325.92
2022-10-22T13:12:04.502Z,100333.02
2022-10-22T13:14:38.179Z,100331.82
2022-10-22T13:17:19.889Z,100329.96
2022-10-22T13:19:53.325Z,100333.52
2022-10-22T13:22:36.992Z,100333.81
2022-10-22T13:25:40.518Z,100334.48
2022-10-22T13:28:08.121Z,100335.99
2022-10-22T13:30:38.461Z,100332.42
2022-10-22T13:33:34.679Z,100336.38
2022-10-22T13:36:03.062Z,100341.48
2022-10-22T13:38:30.950Z,100347.73
2022-10-22T13:40:59.411Z,100342.84
2022-10-22T13:43:27.090Z,100346.46
2022-10-22T13:45:59.168Z,100343.10
2022-10-22T13:48:29.733Z,100347.25
2022-10-22T13:50:57.586Z,100346.03
2022-10-22T13:53:28.264Z,100346.07
2022-10-22T13:55:56.197Z,100348.67
2022-10-22T13:58:25.227Z,100349.10
2022-10-22T14:00:59.644Z,100349.30
2022-10-22T14:03:33.835Z,100351.49
2022-10-22T14:06:01.507Z,100355.23
2022-10-22T14:08:29.417Z,100352.94
2022-10-22T14:10:57.412Z,100346.16
2022-10-22T14:13:25.524Z,100355.13
2022-10-22T14:15:53.246Z,100356.41
2022-10-22T14:18:27.261Z,100353.45
2022-10-22T14:20:58.809Z,100363.52
2022-10-22T14:23:32.066Z,100365.61
2022-10-22T14:26:01.072Z,100368.35
2022-10-22T14:28:29.788Z,100366.87
2022-10-22T14:30:59.703Z,100366.81
2022-10-22T14:33:33.566Z,100363.96
2022-10-22T14:36:01.425Z,100368.93
2022-10-22T14:38:29.386Z,100369.46
2022-10-22T14:40:59.509Z,100367.44
2022-10-22T14:43:31.213Z,100372.65
2022-10-22T14:45:59.276Z,100370.91
2022-10-22T14:48:26.942Z,100376.67
2022-10-22T14:50:55.057Z,100375.89
2022-10-22T14:53:22.794Z,100372.20
2022-10-22T14:55:51.540Z,100374.43
2022-10-22T14:58:19.417Z,100382.39
2022-10-22T15:00:47.268Z,100374.23
2022-10-22T15:03:14.961Z,100376.41
2022-10-22T15:05:44.794Z,100378.73
2022-10-22T15:08:14.789Z,100381.72
2022-10-22T15:10:42.646Z,100383.83
2022-10-22T15:13:10.402Z,100387.02
2022-10-22T15:15:41.182Z,100386.45
2022-10-22T15:18:08.865Z,100388.47
2022-10-22T15:20:36.561Z,100392.77
2022-10-22T15:23:04.238Z,100395.11
2022-10-22T15:25:31.974Z,100397.34
2022-10-22T15:28:03.353Z,100395.94
2022-10-22T15:30:35.233Z,100399.29
2022-10-22T15:33:03.068Z,100400.91
2022-10-22T15:35:30.749Z,100398.80
2022-10-22T15:37:58.404Z,100399.08
2022-10-22T15:40:26.227Z,100402.81
2022-10-22T15:42:53.894Z,100405.96
2022-10-22T15:45:22.484Z,100406.71
2022-10-22T15:47:50.743Z,100408.36
2022-10-22T15:50:18.594Z,100410.44
2022-10-22T15:52:46.316Z,100419.06
2022-10-22T15:55:14.186Z,100415.61
2022-10-22T15:57:42.024Z,100418.66
2022-10-22T16:00:10.956Z,100419.11
2022-10-22T16:02:43.705Z,100425.61
2022-10-22T16:05:11.473Z,100428.27
2022-10-22T16:07:39.283Z,100428.07
2022-10-22T16:10:07.915Z,100433.77
2022-10-22T16:12:35.992Z,100437.02
2022-10-22T16:15:04.182Z,100443.06
2022-10-22T16:17:31.994Z,100444.43
2022-10-22T16:19:59.668Z,100447.21
2022-10-22T16:22:27.428Z,100448.20
2022-10-22T16:24:55.125Z,100452.02
2022-10-22T16:27:26.574Z,100452.88
2022-10-22T16:29:54.403Z,100455.33
2022-10-22T16:32:23.034Z,100451.80
2022-10-22T16:34:50.783Z,100459.30
2022-10-22T16:37:18.628Z,100459.30
2022-10-22T16:39:46.305Z,100457.89
2022-10-22T16:42:13.936Z,100461.50
2022-10-22T16:44:41.780Z,100466.06
2022-10-22T16:47:09.483Z,100465.59
2022-10-22T16:49:37.203Z,100469.46
2022-10-22T16:52:04.975Z,100475.64
2022-10-22T16:54:32.633Z,100475.34
2022-10-22T16:57:00.240Z,100481.16
2022-10-22T16:59:28.017Z,100484.64
2022-10-22T17:01:55.693Z,100487.71
2022-10-22T17:04:23.683Z,100486.83
2022-10-22T17:06:51.339Z,100491.39
2022-10-22T17:09:19.270Z,100491.77
2022-10-22T17:11:47.326Z,100495.41
2022-10-22T17:14:15.171Z,100497.32
2022-10-22T17:16:43.219Z,100495.45
2022-10-22T17:19:14.140Z,100497.41
2022-10-22T17:21:42.936Z,100496.73
2022-10-22T17:24:10.755Z,100495.98
2022-10-22T17:26:38.473Z,100498.15
2022-10-22T17:29:06.700Z,100504.03
2022-10-22T17:31:39.270Z,100505.03
2022-10-22T17:34:14.581Z,100504.33
2022-10-22T17:36:43.816Z,100508.64
2022-10-22T17:39:17.596Z,100511.51
2022-10-22T17:41:45.902Z,100511.91
2022-10-22T17:44:15.510Z,100516.15
2022-10-22T17:46:44.094Z,100521.45
2022-10-22T17:49:19.016Z,100523.90
2022-10-22T17:51:47.088Z,100524.60
2022-10-22T17:54:15.161Z,100525.85
2022-10-22T17:56:42.996Z,100528.84
2022-10-22T17:59:14.581Z,100531.16
2022-10-22T18:01:47.564Z,100529.63
2022-10-22T18:04:19.933Z,100528.30
2022-10-22T18:06:47.935Z,100530.00
2022-10-22T18:09:18.729Z,100529.30
2022-10-22T18:11:53.122Z,100532.94
2022-10-22T18:14:23.202Z,100533.94
2022-10-22T18:16:52.274Z,100538.46
2022-10-22T18:19:23.209Z,100544.45
2022-10-22T18:21:51.008Z,100546.24
2022-10-22T18:24:18.982Z,100548.36
2022-10-22T18:26:46.776Z,100552.00
2022-10-22T18:29:18.378Z,100555.32
2022-10-22T18:31:47.373Z,100555.36
2022-10-22T18:34:17.695Z,100559.80
2022-10-22T18:36:48.333Z,100555.90
2022-10-22T18:39:16.717Z,100558.34
2022-10-22T18:41:44.404Z,100556.98
2022-10-22T18:44:15.113Z,100556.35
2022-10-22T18:46:42.927Z,100558.40
2022-10-22T18:49:18.838Z,100562.27
2022-10-22T18:51:52.436Z,100564.61
2022-10-22T18:54:23.935Z,100567.31
2022-10-22T18:56:55.555Z,100569.98
2022-10-22T18:59:27.137Z,100568.80
2022-10-22T19:01:59.392Z,100571.96
2022-10-22T19:04:33.491Z,100572.76
2022-10-22T19:07:01.268Z,100579.75
2022-10-22T19:09:29.206Z,100582.61
2022-10-22T19:11:56.970Z,100582.52
2022-10-22T19:14:24.690Z,100582.70
2022-10-22T19:16:52.680Z,100582.91
2022-10-22T19:19:21.935Z,100581.79
2022-10-22T19:21:50.508Z,100579.84
2022-10-22T19:24:20.071Z,100587.42
2022-10-22T19:26:49.336Z,100591.11
2022-10-22T19:29:20.565Z,100596.34
2022-10-22T19:31:50.981Z,100598.66
2022-10-22T19:34:20.291Z,100600.55
2022-10-22T19:36:51.764Z,100599.48
2022-10-22T19:39:20.203Z,100596.16
2022-10-22T19:41:47.879Z,100606.15
2022-10-22T19:44:15.776Z,100606.94
2022-10-22T19:46:43.421Z,100613.77
2022-10-22T19:49:11.163Z,100619.92
2022-10-22T19:51:40.210Z,100626.29
2022-10-22T19:54:15.626Z,100632.59
2022-10-22T19:56:43.808Z,100634.16
2022-10-22T19:59:13.654Z,100631.09
2022-10-22T20:01:42.079Z,100633.75
2022-10-22T20:04:16.089Z,100634.73
2022-10-22T20:06:44.469Z,100640.15
2022-10-22T20:09:13.757Z,100642.01
2022-10-22T20:11:41.500Z,100643.52
2022-10-22T20:14:09.206Z,100649.23
2022-10-22T20:16:36.988Z,100651.50
2022-10-22T20:19:07.784Z,100655.57
2022-10-22T20:21:35.610Z,100660.38
2022-10-22T20:24:04.252Z,100662.09
2022-10-22T20:26:32.289Z,100661.33
2022-10-22T20:29:00.211Z,100664.70
2022-10-22T20:31:29.494Z,100661.61
2022-10-22T20:33:59.268Z,100664.77
2022-10-22T20:36:28.982Z,100667.13
2022-10-22T20:39:07.033Z,100666.61
2022-10-22T20:41:37.863Z,100663.55
2022-10-22T20:44:10.817Z,100662.66
2022-10-22T20:46:38.448Z,100660.48
2022-10-22T20:49:14.061Z,100657.48
2022-10-22T20:51:42.271Z,100661.46
2022-10-22T20:54:10.928Z,100666.55
2022-10-22T20:56:40.825Z,100669.98
2022-10-22T20:59:11.918Z,100672.34
2022-10-22T21:01:44.571Z,100669.55
2022-10-22T21:04:12.715Z,100667.70
2022-10-22T21:06:42.814Z,100671.23
2022-10-22T21:09:13.794Z,100675.61
2022-10-22T21:11:42.951Z,100675.36
2022-10-22T21:14:13.022Z,100678.60
2022-10-22T21:16:46.987Z,100680.48
2022-10-22T21:19:14.909Z,100677.05
2022-10-22T21:21:42.537Z,100678.56
2022-10-22T21:24:10.718Z,100680.96
2022-10-22T21:26:43.086Z,100686.30
2022-10-22T21:29:12.699Z,100684.86
2022-10-22T21:31:40.516Z,100681.69
2022-10-22T21:34:08.415Z,100680.71
2022-10-22T21:36:36.112Z,100684.98
2022-10-22T21:39:04.146Z,100687.49
2022-10-22T21:41:32.358Z,100690.79
2022-10-22T21:44:00.040Z,100687.67
2022-10-22T21:46:29.470Z,100684.77
2022-10-22T21:49:03.994Z,100684.69
2022-10-22T21:51:35.753Z,100683.27
2022-10-22T21:54:04.709Z,100687.73
2022-10-22T21:56:35.810Z,100689.85
2022-10-22T21:59:05.601Z,100692.15
2022-10-22T22:01:33.817Z,100691.56
2022-10-22T22:04:02.151Z,100693.55
2022-10-22T22:06:33.542Z,100693.35
2022-10-22T22:09:04.463Z,100694.24
2022-10-22T22:11:32.684Z,100696.77
2022-10-22T22:14:00.396Z,100699.49
2022-10-22T22:16:31.532Z,100699.71
2022-10-22T22:19:07.193Z,100701.50
2022-10-22T22:21:39.252Z,100707.14
2022-10-22T22:24:10.820Z,100708.80
2022-10-22T22:26:39.328Z,100711.66
2022-10-22T22:29:07.045Z,100716.54
2022-10-22T22:31:35.915Z,100715.21
2022-10-22T22:34:08.265Z,100717.59
2022-10-22T22:36:39.858Z,100719.45
2022-10-22T22:39:12.395Z,100718.96
2022-10-22T22:41:42.350Z,100723.58
2022-10-22T22:44:10.348Z,100725.34
2022-10-22T22:46:38.302Z,100722.11
2022-10-22T22:49:08.503Z,100726.23
2022-10-22T22:51:36.270Z,100722.77
2022-10-22T22:54:04.069Z,100719.49
2022-10-22T22:56:34.214Z,100720.84
2022-10-22T22:59:03.748Z,100719.77
2022-10-22T23:01:34.948Z,100722.40
2022-10-22T23:04:18.877Z,100717.73
2022-10-22T23:06:46.621Z,100726.54
2022-10-22T23:09:16.853Z,100728.36
2022-10-22T23:11:46.605Z,100730.80
2022-10-22T23:14:17.599Z,100723.67
2022-10-22T23:16:49.601Z,100722.16
2022-10-22T23:19:21.270Z,100723.06
2022-10-22T23:21:53.126Z,100723.28
2022-10-22T23:24:27.873Z,100725.23
2022-10-22T23:26:59.697Z,100727.20
2022-10-22T23:29:30.658Z,100728.88
2022-10-22T23:32:05.506Z,100730.88
2022-10-22T23:34:33.345Z,100730.23
2022-10-22T23:37:00.990Z,100728.82
2022-10-22T23:39:29.519Z,100731.09
2022-10-22T23:41:58.052Z,100733.36
2022-10-22T23:44:25.899Z,100730.83
2022-10-22T23:46:54.032Z,100724.88
2022-10-22T23:49:21.771Z,100724.39
2022-10-22T23:51:49.402Z,100723.50
2022-10-22T23:54:18.565Z,100718.91
2022-10-22T23:56:46.671Z,100722.70
